createdAt,value
2018-11-12T00:01:20.244Z,95761.92
2018-11-12T00:03:55.250Z,95768.17
2018-11-12T00:06:29.780Z,95764.45
2018-11-12T00:09:05.356Z,95764.63
2018-11-12T00:11:39.973Z,95765.60
2018-11-12T00:14:14.932Z,95755.42
2018-11-12T00:16:49.892Z,95760.27
2018-11-12T00:19:24.520Z,95751.70
2018-11-12T00:21:59.070Z,95754.44
2018-11-12T00:24:34.350Z,95757.48
2018-11-12T00:27:08.754Z,95766.78
2018-11-12T00:29:43.413Z,95771.60
2018-11-12T00:32:18.112Z,95772.06
2018-11-12T00:34:53.084Z,95778.47
2018-11-12T00:37:27.905Z,95782.66
2018-11-12T00:40:03.107Z,95784.81
2018-11-12T00:42:38.646Z,95786.73
2018-11-12T00:45:13.193Z,95789.55
2018-11-12T00:47:50.073Z,95799.03
2018-11-12T00:50:24.809Z,95799.21
2018-11-12T00:52:59.505Z,95797.51
2018-11-12T00:55:34.133Z,95800.03
2018-11-12T00:58:09.353Z,95802.70
2018-11-12T01:00:44.440Z,95802.22
2018-11-12T01:03:18.893Z,95805.70
2018-11-12T01:05:53.792Z,95805.00
2018-11-12T01:08:28.759Z,95811.27
2018-11-12T01:11:03.817Z,95809.66
2018-11-12T01:13:38.565Z,95813.05
2018-11-12T01:16:13.258Z,95810.55
2018-11-12T01:18:48.293Z,95811.33
2018-11-12T01:21:22.560Z,95805.17
2018-11-12T01:23:56.838Z,95796.30
2018-11-12T01:26:31.137Z,95794.82
2018-11-12T01:29:06.476Z,95790.29
2018-11-12T01:31:41.337Z,95787.83
2018-11-12T01:34:16.046Z,95787.94
2018-11-12T01:36:50.817Z,95784.19
2018-11-12T01:39:25.329Z,95785.55
2018-11-12T01:42:00.771Z,95782.64
2018-11-12T01:44:35.417Z,95780.98
2018-11-12T01:47:09.845Z,95776.45
2018-11-12T01:49:44.186Z,95771.77
2018-11-12T01:52:18.577Z,95775.97
2018-11-12T01:54:52.925Z,95773.62
2018-11-12T01:57:27.756Z,95774.17
2018-11-12T02:00:02.255Z,95779.55
2018-11-12T02:02:37.341Z,95777.59
2018-11-12T02:05:12.383Z,95771.15
2018-11-12T02:07:47.384Z,95775.94
2018-11-12T02:10:21.948Z,95779.88
2018-11-12T02:12:56.608Z,95782.27
2018-11-12T02:15:31.160Z,95780.36
2018-11-12T02:18:05.836Z,95780.36
2018-11-12T02:20:40.549Z,95775.83
2018-11-12T02:23:15.435Z,95774.54
2018-11-12T02:25:50.207Z,95780.47
2018-11-12T02:28:24.566Z,95787.53
2018-11-12T02:30:59.314Z,95790.25
2018-11-12T02:33:33.757Z,95787.23
2018-11-12T02:36:08.429Z,95778.83
2018-11-12T02:38:43.134Z,95780.34
2018-11-12T02:41:17.757Z,95785.13
2018-11-12T02:43:52.173Z,95787.81
2018-11-12T02:46:26.817Z,95789.17
2018-11-12T02:49:01.321Z,95784.56
2018-11-12T02:51:35.879Z,95780.25
2018-11-12T02:54:10.478Z,95779.44
2018-11-12T02:56:45.253Z,95786.42
2018-11-12T02:59:20.109Z,95786.11
2018-11-12T03:01:54.836Z,95791.66
2018-11-12T03:04:29.373Z,95785.04
2018-11-12T03:07:04.628Z,95789.43
2018-11-12T03:09:38.984Z,95790.84
2018-11-12T03:12:14.246Z,95783.80
2018-11-12T03:14:48.653Z,95782.81
2018-11-12T03:17:23.509Z,95790.63
2018-11-12T03:19:58.056Z,95791.78
2018-11-12T03:22:32.561Z,95787.58
2018-11-12T03:25:08.106Z,95786.97
2018-11-12T03:27:43.316Z,95782.56
2018-11-12T03:30:23.840Z,95786.61
2018-11-12T03:32:58.703Z,95789.00
2018-11-12T03:35:33.652Z,95791.43
2018-11-12T03:38:08.620Z,95801.31
2018-11-12T03:40:43.240Z,95802.88
2018-11-12T03:43:17.693Z,95808.66
2018-11-12T03:45:52.248Z,95804.80
2018-11-12T03:48:26.740Z,95809.81
2018-11-12T03:51:01.369Z,95811.67
2018-11-12T03:53:36.340Z,95814.23
2018-11-12T03:56:11.434Z,95815.33
2018-11-12T03:58:47.721Z,95821.09
2018-11-12T04:01:22.369Z,95821.29
2018-11-12T04:03:57.468Z,95821.97
2018-11-12T04:06:31.931Z,95824.54
2018-11-12T04:09:07.339Z,95823.59
2018-11-12T04:11:46.616Z,95821.16
2018-11-12T04:14:21.044Z,95812.42
2018-11-12T04:16:56.328Z,95826.30
2018-11-12T04:19:30.990Z,95824.54
2018-11-12T04:22:05.755Z,95819.73
2018-11-12T04:24:40.480Z,95814.58
2018-11-12T04:27:14.763Z,95800.55
2018-11-12T04:29:49.548Z,95807.66
2018-11-12T04:32:23.993Z,95813.18
2018-11-12T04:34:58.332Z,95804.89
2018-11-12T04:37:32.768Z,95804.36
2018-11-12T04:40:12.112Z,95794.88
2018-11-12T04:42:47.445Z,95787.10
2018-11-12T04:45:23.252Z,95783.23
2018-11-12T04:47:58.192Z,95794.88
2018-11-12T04:50:32.801Z,95788.86
2018-11-12T04:53:07.220Z,95798.06
2018-11-12T04:55:41.900Z,95790.02
2018-11-12T04:58:16.721Z,95788.30
2018-11-12T05:00:51.884Z,95790.26
2018-11-12T05:03:26.205Z,95795.69
2018-11-12T05:06:01.097Z,95797.45
2018-11-12T05:08:35.393Z,95789.28
2018-11-12T05:11:09.760Z,95797.40
2018-11-12T05:13:44.421Z,95784.00
2018-11-12T05:16:19.240Z,95781.34
2018-11-12T05:18:53.929Z,95778.98
2018-11-12T05:21:28.477Z,95776.14
2018-11-12T05:24:03.084Z,95785.84
2018-11-12T05:26:37.749Z,95804.30
2018-11-12T05:29:12.178Z,95799.63
2018-11-12T05:31:46.850Z,95797.81
2018-11-12T05:34:21.201Z,95804.11
2018-11-12T05:36:55.643Z,95804.64
2018-11-12T05:39:30.485Z,95802.28
2018-11-12T05:42:05.848Z,95795.92
2018-11-12T05:44:40.532Z,95801.80
2018-11-12T05:47:15.393Z,95797.95
2018-11-12T05:49:50.380Z,95811.14
2018-11-12T05:52:24.945Z,95805.86
2018-11-12T05:54:59.678Z,95808.33
2018-11-12T05:57:34.242Z,95805.95
2018-11-12T06:00:10.026Z,95808.05
2018-11-12T06:02:44.917Z,95811.23
2018-11-12T06:05:19.482Z,95805.95
2018-11-12T06:07:54.594Z,95814.05
2018-11-12T06:10:30.285Z,95814.34
2018-11-12T06:13:04.876Z,95809.95
2018-11-12T06:15:39.400Z,95805.81
2018-11-12T06:18:14.040Z,95807.91
2018-11-12T06:20:48.552Z,95799.09
2018-11-12T06:23:23.665Z,95800.11
2018-11-12T06:25:58.613Z,95801.34
2018-11-12T06:28:33.228Z,95813.53
2018-11-12T06:31:08.233Z,95825.98
2018-11-12T06:33:42.686Z,95823.74
2018-11-12T06:36:17.535Z,95824.83
2018-11-12T06:38:52.561Z,95822.25
2018-11-12T06:41:27.104Z,95839.13
2018-11-12T06:44:01.446Z,95842.45
2018-11-12T06:46:36.125Z,95831.55
2018-11-12T06:49:10.504Z,95831.66
2018-11-12T06:51:45.079Z,95835.67
2018-11-12T06:54:19.508Z,95837.57
2018-11-12T06:56:53.954Z,95835.81
2018-11-12T06:59:28.436Z,95838.44
2018-11-12T07:02:02.692Z,95843.73
2018-11-12T07:04:37.140Z,95838.50
2018-11-12T07:07:11.606Z,95824.40
2018-11-12T07:09:46.118Z,95826.11
2018-11-12T07:12:20.939Z,95840.05
2018-11-12T07:14:55.399Z,95835.95
2018-11-12T07:17:29.700Z,95835.61
2018-11-12T07:20:04.101Z,95827.25
2018-11-12T07:22:38.877Z,95823.55
2018-11-12T07:25:14.001Z,95821.11
2018-11-12T07:27:48.752Z,95824.28
2018-11-12T07:30:25.547Z,95813.98
2018-11-12T07:33:00.426Z,95817.56
2018-11-12T07:35:34.928Z,95818.66
2018-11-12T07:38:09.388Z,95816.67
2018-11-12T07:40:44.569Z,95824.87
2018-11-12T07:43:18.878Z,95822.45
2018-11-12T07:45:53.446Z,95819.23
2018-11-12T07:48:27.952Z,95814.92
2018-11-12T07:51:02.568Z,95809.39
2018-11-12T07:53:37.353Z,95803.84
2018-11-12T07:56:11.946Z,95803.64
2018-11-12T07:58:46.705Z,95808.73
2018-11-12T08:01:21.356Z,95810.46
2018-11-12T08:03:55.869Z,95809.72
2018-11-12T08:06:30.549Z,95803.99
2018-11-12T08:09:06.979Z,95801.59
2018-11-12T08:11:42.198Z,95790.62
2018-11-12T08:14:17.168Z,95786.23
2018-11-12T08:16:52.324Z,95786.56
2018-11-12T08:19:26.990Z,95787.63
2018-11-12T08:22:02.288Z,95782.70
2018-11-12T08:24:36.901Z,95789.27
2018-11-12T08:27:11.530Z,95790.95
2018-11-12T08:29:46.217Z,95794.97
2018-11-12T08:32:21.621Z,95802.95
2018-11-12T08:34:56.168Z,95799.39
2018-11-12T08:37:31.149Z,95796.80
2018-11-12T08:40:07.923Z,95789.52
2018-11-12T08:42:43.724Z,95791.47
2018-11-12T08:45:18.170Z,95787.92
2018-11-12T08:47:54.504Z,95799.95
2018-11-12T08:50:29.272Z,95790.64
2018-11-12T08:53:04.441Z,95791.26
2018-11-12T08:55:39.098Z,95794.91
2018-11-12T08:58:14.879Z,95789.48
2018-11-12T09:00:48.765Z,95789.19
2018-11-12T09:03:23.772Z,95792.22
2018-11-12T09:05:58.598Z,95794.89
2018-11-12T09:08:33.280Z,95806.56
2018-11-12T09:11:08.580Z,95799.78
2018-11-12T09:13:44.227Z,95805.34
2018-11-12T09:16:19.199Z,95801.64
2018-11-12T09:18:53.565Z,95792.85
2018-11-12T09:21:28.188Z,95796.99
2018-11-12T09:24:02.927Z,95791.13
2018-11-12T09:26:38.156Z,95792.98
2018-11-12T09:29:12.703Z,95795.09
2018-11-12T09:31:47.962Z,95792.87
2018-11-12T09:34:22.849Z,95789.58
2018-11-12T09:36:57.888Z,95790.53
2018-11-12T09:39:32.525Z,95804.41
2018-11-12T09:42:07.537Z,95797.00
2018-11-12T09:44:42.296Z,95798.72
2018-11-12T09:47:16.812Z,95793.72
2018-11-12T09:49:51.509Z,95796.67
2018-11-12T09:52:26.255Z,95799.33
2018-11-12T09:55:00.851Z,95805.26
2018-11-12T09:57:35.552Z,95807.07
2018-11-12T10:00:13.216Z,95806.47
2018-11-12T10:02:50.136Z,95805.86
2018-11-12T10:05:24.863Z,95798.89
2018-11-12T10:08:04.016Z,95808.22
2018-11-12T10:10:43.652Z,95812.50
2018-11-12T10:13:22.212Z,95815.57
2018-11-12T10:15:58.020Z,95815.84
2018-11-12T10:18:29.978Z,95818.51
2018-11-12T10:21:04.970Z,95817.77
2018-11-12T10:23:39.386Z,95822.30
2018-11-12T10:26:14.207Z,95820.41
2018-11-12T10:28:48.661Z,95814.94
2018-11-12T10:31:23.708Z,95816.91
2018-11-12T10:33:58.189Z,95821.41
2018-11-12T10:36:33.504Z,95820.69
2018-11-12T10:39:09.473Z,95818.99
2018-11-12T10:41:43.844Z,95807.34
2018-11-12T10:44:18.289Z,95812.55
2018-11-12T10:46:53.373Z,95817.29
2018-11-12T10:49:27.885Z,95816.20
2018-11-12T10:52:02.329Z,95808.20
2018-11-12T10:54:36.850Z,95813.73
2018-11-12T10:57:11.772Z,95808.78
2018-11-12T10:59:46.281Z,95805.97
2018-11-12T11:02:26.516Z,95801.59
2018-11-12T11:05:01.758Z,95797.06
2018-11-12T11:07:36.384Z,95798.14
2018-11-12T11:10:10.744Z,95798.58
2018-11-12T11:12:47.298Z,95789.57
2018-11-12T11:15:22.322Z,95793.63
2018-11-12T11:20:40.308Z,95797.75
2018-11-12T11:23:14.909Z,95796.19
2018-11-12T11:25:49.392Z,95794.98
2018-11-12T11:28:24.374Z,95790.69
2018-11-12T11:30:59.387Z,95791.16
2018-11-12T11:33:34.140Z,95796.36
2018-11-12T11:36:08.413Z,95792.10
2018-11-12T11:38:42.977Z,95781.41
2018-11-12T11:41:17.525Z,95776.72
2018-11-12T11:43:51.935Z,95777.22
2018-11-12T11:46:26.672Z,95780.75
2018-11-12T11:49:01.218Z,95785.77
2018-11-12T11:51:36.639Z,95785.75
2018-11-12T11:54:11.768Z,95783.92
2018-11-12T11:56:46.292Z,95782.27
2018-11-12T11:59:20.849Z,95771.24
2018-11-12T12:01:55.800Z,95773.84
2018-11-12T12:04:30.749Z,95773.53
2018-11-12T12:07:05.846Z,95776.84
2018-11-12T12:09:40.669Z,95764.78
2018-11-12T12:12:15.544Z,95775.71
2018-11-12T12:14:50.413Z,95767.41
2018-11-12T12:17:24.992Z,95768.91
2018-11-12T12:19:59.659Z,95770.03
2018-11-12T12:22:34.173Z,95760.86
2018-11-12T12:25:10.725Z,95753.70
2018-11-12T12:27:46.273Z,95747.85
2018-11-12T12:30:23.323Z,95749.41
2018-11-12T12:32:58.668Z,95752.97
2018-11-12T12:35:33.879Z,95756.86
2018-11-12T12:38:08.777Z,95752.02
2018-11-12T12:40:43.469Z,95753.30
2018-11-12T12:43:17.819Z,95756.16
2018-11-12T12:45:52.391Z,95752.48
2018-11-12T12:48:27.405Z,95761.53
2018-11-12T12:51:01.887Z,95759.45
2018-11-12T12:53:36.183Z,95755.05
2018-11-12T12:56:10.795Z,95753.11
2018-11-12T12:58:46.036Z,95746.16
2018-11-12T13:01:20.583Z,95746.40
2018-11-12T13:03:55.196Z,95753.42
2018-11-12T13:06:29.937Z,95754.87
2018-11-12T13:09:07.664Z,95753.19
2018-11-12T13:11:42.271Z,95748.07
2018-11-12T13:14:17.059Z,95744.70
2018-11-12T13:16:52.269Z,95752.86
2018-11-12T13:19:26.819Z,95758.98
2018-11-12T13:22:01.539Z,95759.98
2018-11-12T13:24:36.501Z,95754.68
2018-11-12T13:27:11.085Z,95754.30
2018-11-12T13:29:45.949Z,95762.95
2018-11-12T13:32:20.545Z,95758.61
2018-11-12T13:34:54.847Z,95763.66
2018-11-12T13:37:29.141Z,95760.45
2018-11-12T13:40:04.092Z,95769.09
2018-11-12T13:42:38.598Z,95777.75
2018-11-12T13:45:13.235Z,95773.33
2018-11-12T13:47:48.247Z,95773.06
2018-11-12T13:50:25.304Z,95785.98
2018-11-12T13:53:01.294Z,95788.02
2018-11-12T13:55:35.941Z,95792.69
2018-11-12T13:58:10.388Z,95788.25
2018-11-12T14:00:45.015Z,95789.68
2018-11-12T14:03:19.528Z,95804.28
2018-11-12T14:05:54.216Z,95809.46
2018-11-12T14:08:29.173Z,95815.91
2018-11-12T14:11:03.932Z,95817.33
2018-11-12T14:13:38.900Z,95829.91
2018-11-12T14:16:13.222Z,95836.55
2018-11-12T14:18:48.412Z,95836.82
2018-11-12T14:21:23.004Z,95842.34
2018-11-12T14:23:57.852Z,95842.71
2018-11-12T14:26:32.749Z,95843.41
2018-11-12T14:29:08.023Z,95853.52
2018-11-12T14:31:42.963Z,95847.70
2018-11-12T14:34:17.497Z,95856.01
2018-11-12T14:36:52.522Z,95863.36
2018-11-12T14:39:26.953Z,95869.23
2018-11-12T14:42:02.076Z,95861.36
2018-11-12T14:44:37.309Z,95866.19
2018-11-12T14:47:11.786Z,95869.03
2018-11-12T14:49:46.108Z,95868.53
2018-11-12T14:52:21.246Z,95874.27
2018-11-12T14:54:55.985Z,95875.18
2018-11-12T14:57:31.062Z,95866.30
2018-11-12T15:00:15.540Z,95863.55
2018-11-12T15:02:51.885Z,95869.03
2018-11-12T15:05:26.832Z,95868.72
2018-11-12T15:08:01.910Z,95867.38
2018-11-12T15:10:36.337Z,95871.20
2018-11-12T15:13:10.916Z,95880.81
2018-11-12T15:15:45.375Z,95886.69
2018-11-12T15:18:20.168Z,95878.80
2018-11-12T15:20:54.958Z,95886.81
2018-11-12T15:23:30.068Z,95882.17
2018-11-12T15:26:05.388Z,95884.18
2018-11-12T15:28:39.968Z,95884.10
2018-11-12T15:31:14.809Z,95881.02
2018-11-12T15:33:49.628Z,95889.44
2018-11-12T15:36:24.189Z,95894.22
2018-11-12T15:38:58.757Z,95896.09
2018-11-12T15:41:33.192Z,95902.33
2018-11-12T15:44:08.175Z,95911.60
2018-11-12T15:46:42.829Z,95912.28
2018-11-12T15:49:17.697Z,95923.38
2018-11-12T15:51:52.286Z,95922.74
2018-11-12T15:54:27.457Z,95928.46
2018-11-12T15:57:01.981Z,95919.92
2018-11-12T15:59:37.063Z,95917.09
2018-11-12T16:02:11.681Z,95922.24
2018-11-12T16:04:46.447Z,95930.48
2018-11-12T16:07:20.968Z,95937.19
2018-11-12T16:09:55.830Z,95935.02
2018-11-12T16:12:30.863Z,95933.64
2018-11-12T16:15:05.725Z,95943.68
2018-11-12T16:17:40.543Z,95942.11
2018-11-12T16:20:22.289Z,95946.62
2018-11-12T16:22:58.080Z,95945.72
2018-11-12T16:25:33.212Z,95943.17
2018-11-12T16:28:07.876Z,95937.48
2018-11-12T16:30:42.792Z,95939.50
2018-11-12T16:33:17.152Z,95932.23
2018-11-12T16:35:51.464Z,95941.95
2018-11-12T16:38:25.985Z,95953.34
2018-11-12T16:41:03.188Z,95954.23
2018-11-12T16:44:45.043Z,95954.73
2018-11-12T16:47:19.966Z,95966.85
2018-11-12T16:49:54.516Z,95962.00
2018-11-12T16:52:29.101Z,95966.11
2018-11-12T16:55:04.350Z,95972.78
2018-11-12T16:57:38.921Z,95983.18
2018-11-12T17:00:15.281Z,95988.26
2018-11-12T17:02:49.938Z,95999.53
2018-11-12T17:05:25.130Z,96007.81
2018-11-12T17:07:59.829Z,96007.49
2018-11-12T17:10:44.102Z,96012.73
2018-11-12T17:13:21.534Z,96017.14
2018-11-12T17:15:57.413Z,96017.00
2018-11-12T17:18:31.876Z,96023.32
2018-11-12T17:21:07.624Z,96020.39
2018-11-12T17:23:42.755Z,96016.66
2018-11-12T17:26:17.309Z,96017.82
2018-11-12T17:28:51.987Z,96023.49
2018-11-12T17:31:26.492Z,96030.98
2018-11-12T17:34:01.221Z,96041.70
2018-11-12T17:36:35.950Z,96041.53
2018-11-12T17:39:11.571Z,96042.20
2018-11-12T17:41:46.015Z,96042.53
2018-11-12T17:44:20.512Z,96051.43
2018-11-12T17:46:54.938Z,96057.61
2018-11-12T17:49:29.880Z,96059.22
2018-11-12T17:52:04.453Z,96057.61
2018-11-12T17:54:39.246Z,96054.68
2018-11-12T17:57:13.728Z,96060.20
2018-11-12T17:59:48.406Z,96063.61
2018-11-12T18:02:23.072Z,96072.70
2018-11-12T18:04:58.257Z,96073.34
2018-11-12T18:07:33.443Z,96076.91
2018-11-12T18:10:11.025Z,96080.94
2018-11-12T18:12:46.181Z,96087.27
2018-11-12T18:15:21.766Z,96094.41
2018-11-12T18:17:56.786Z,96095.02
2018-11-12T18:20:31.433Z,96099.41
2018-11-12T18:23:06.471Z,96101.48
2018-11-12T18:25:41.097Z,96096.48
2018-11-12T18:28:15.870Z,96095.15
2018-11-12T18:30:50.561Z,96099.03
2018-11-12T18:33:25.021Z,96099.16
2018-11-12T18:35:59.666Z,96099.15
2018-11-12T18:38:34.082Z,96095.42
2018-11-12T18:41:08.380Z,96101.53
2018-11-12T18:43:43.144Z,96101.84
2018-11-12T18:46:18.125Z,96091.16
2018-11-12T18:48:53.128Z,96086.91
2018-11-12T18:51:28.010Z,96093.38
2018-11-12T18:54:02.390Z,96089.81
2018-11-12T18:56:37.097Z,96094.36
2018-11-12T18:59:11.697Z,96100.71
2018-11-12T19:01:46.599Z,96099.70
2018-11-12T19:04:21.133Z,96098.92
2018-11-12T19:06:55.713Z,96099.54
2018-11-12T19:09:30.055Z,96095.17
2018-11-12T19:12:05.076Z,96093.88
2018-11-12T19:14:39.441Z,96095.16
2018-11-12T19:17:15.467Z,96099.49
2018-11-12T19:19:49.824Z,96104.02
2018-11-12T19:22:25.487Z,96106.59
2018-11-12T19:24:59.812Z,96103.67
2018-11-12T19:27:34.220Z,96107.67
2018-11-12T19:30:11.148Z,96108.64
2018-11-12T19:32:47.071Z,96112.50
2018-11-12T19:35:23.225Z,96122.81
2018-11-12T19:37:58.569Z,96122.63
2018-11-12T19:40:33.627Z,96127.41
2018-11-12T19:43:08.698Z,96132.38
2018-11-12T19:45:58.222Z,96131.93
2018-11-12T19:48:33.736Z,96133.13
2018-11-12T19:51:09.464Z,96139.23
2018-11-12T19:53:44.080Z,96134.69
2018-11-12T19:56:18.485Z,96137.63
2018-11-12T19:58:53.133Z,96145.20
2018-11-12T20:01:28.249Z,96139.00
2018-11-12T20:04:03.067Z,96144.63
2018-11-12T20:06:38.053Z,96145.91
2018-11-12T20:09:13.372Z,96140.11
2018-11-12T20:11:47.908Z,96145.11
2018-11-12T20:14:22.597Z,96151.56
2018-11-12T20:16:57.144Z,96145.39
2018-11-12T20:19:32.109Z,96148.86
2018-11-12T20:22:06.884Z,96153.04
2018-11-12T20:24:42.717Z,96157.88
2018-11-12T20:27:17.073Z,96159.56
2018-11-12T20:29:51.660Z,96163.20
2018-11-12T20:32:26.282Z,96162.88
2018-11-12T20:35:01.100Z,96158.66
2018-11-12T20:37:36.577Z,96159.35
2018-11-12T20:40:14.222Z,96163.41
2018-11-12T20:42:49.684Z,96164.98
2018-11-12T20:45:24.837Z,96161.02
2018-11-12T20:48:00.224Z,96164.20
2018-11-12T20:50:34.948Z,96165.95
2018-11-12T20:53:09.723Z,96160.77
2018-11-12T20:55:44.143Z,96163.08
2018-11-12T20:58:18.825Z,96167.92
2018-11-12T21:00:55.425Z,96162.27
2018-11-12T21:03:30.200Z,96162.63
2018-11-12T21:06:06.958Z,96158.94
2018-11-12T21:08:41.356Z,96154.09
2018-11-12T21:11:16.167Z,96157.07
2018-11-12T21:13:50.742Z,96155.48
2018-11-12T21:16:25.446Z,96152.41
2018-11-12T21:18:59.797Z,96157.22
2018-11-12T21:21:34.249Z,96153.58
2018-11-12T21:24:09.412Z,96152.11
2018-11-12T21:26:43.849Z,96150.23
2018-11-12T21:29:18.289Z,96150.20
2018-11-12T21:31:53.976Z,96149.72
2018-11-12T21:34:28.494Z,96143.25
2018-11-12T21:37:03.497Z,96143.11
2018-11-12T21:39:38.209Z,96141.00
2018-11-12T21:42:12.756Z,96134.02
2018-11-12T21:44:47.253Z,96135.13
2018-11-12T21:47:21.635Z,96139.53
2018-11-12T21:49:56.097Z,96133.88
2018-11-12T21:52:31.214Z,96135.64
2018-11-12T21:55:05.988Z,96126.89
2018-11-12T21:57:41.717Z,96125.94
2018-11-12T22:00:21.956Z,96126.89
2018-11-12T22:03:00.889Z,96128.84
2018-11-12T22:05:35.841Z,96125.62
2018-11-12T22:08:10.556Z,96122.92
2018-11-12T22:10:44.862Z,96130.02
2018-11-12T22:13:19.276Z,96133.11
2018-11-12T22:15:54.045Z,96134.83
2018-11-12T22:18:28.563Z,96130.44
2018-11-12T22:21:03.738Z,96133.06
2018-11-12T22:23:38.946Z,96135.13
2018-11-12T22:26:13.365Z,96137.72
2018-11-12T22:28:48.087Z,96138.38
2018-11-12T22:31:22.877Z,96145.33
2018-11-12T22:33:57.307Z,96149.80
2018-11-12T22:36:31.824Z,96145.37
2018-11-12T22:39:08.188Z,96151.14
2018-11-12T22:41:42.467Z,96149.27
2018-11-12T22:44:17.181Z,96141.98
2018-11-12T22:46:51.500Z,96149.00
2018-11-12T22:49:26.264Z,96151.08
2018-11-12T22:52:00.756Z,96144.39
2018-11-12T22:54:35.166Z,96146.94
2018-11-12T22:57:09.930Z,96143.83
2018-11-12T22:59:44.458Z,96141.88
2018-11-12T23:02:19.820Z,96145.34
2018-11-12T23:04:54.436Z,96147.34
2018-11-12T23:07:29.044Z,96149.77
2018-11-12T23:10:04.008Z,96160.92
2018-11-12T23:12:39.259Z,96151.24
2018-11-12T23:15:18.311Z,96154.78
2018-11-12T23:17:52.744Z,96151.86
2018-11-12T23:20:28.552Z,96151.34
2018-11-12T23:23:03.155Z,96147.80
2018-11-12T23:25:37.924Z,96155.41
2018-11-12T23:28:12.668Z,96160.14
2018-11-12T23:30:47.365Z,96155.14
2018-11-12T23:33:21.807Z,96152.33
2018-11-12T23:35:56.110Z,96149.81
2018-11-12T23:38:31.109Z,96144.59
2018-11-12T23:41:05.732Z,96145.13
2018-11-12T23:43:40.227Z,96150.20
2018-11-12T23:46:15.042Z,96140.64
2018-11-12T23:48:49.917Z,96142.74
2018-11-12T23:51:24.344Z,96137.69
2018-11-12T23:53:59.105Z,96133.48
2018-11-12T23:56:33.689Z,96132.06
2018-11-12T23:59:08.553Z,96125.22
